This is the latest recevied weather packets stored in our database for station/object K5FEP. If no packets are shown the sender has not sent any weather packets the latest 10 day(s).
| Time | Temp. | Humidity | Pressure | Rain* | Wind** | Luminosity | Snow |
|---|---|---|---|---|---|---|---|
| 1777821138 | 13.33° C | 33% | 1019.1 hPa | 0 mm | - | 857 W/m² | - |
| 1777820835 | 13.33° C | 33% | 1019.2 hPa | 0 mm | - | 846 W/m² | - |
| 1777820531 | 13.33° C | 32% | 1019.3 hPa | 0 mm | - | 833 W/m² | - |
| 1777820228 | 12.78° C | 33% | 1019.3 hPa | 0 mm | - | 820 W/m² | - |
| 1777819925 | 13.33° C | 33% | 1019.1 hPa | 0 mm | - | 807 W/m² | - |
| 1777819623 | 12.78° C | 33% | 1019 hPa | 0 mm | - | 790 W/m² | - |
| 1777819320 | 12.22° C | 34% | 1019.1 hPa | 0 mm | - | 777 W/m² | - |
| 1777819016 | 12.22° C | 33% | 1019.1 hPa | 0 mm | - | 762 W/m² | - |
| 1777818714 | 12.78° C | 34% | 1019 hPa | 0 mm | - | 747 W/m² | - |
| 1777818410 | 12.78° C | 33% | 1019.1 hPa | 0 mm | - | 732 W/m² | - |
| 1777818107 | 12.78° C | 35% | 1019.1 hPa | 0 mm | - | 716 W/m² | - |
| 1777817804 | 12.78° C | 32% | 1019.1 hPa | 0 mm | - | 697 W/m² | - |
| 1777817502 | 12.22° C | 37% | 1019.1 hPa | 0 mm | - | 679 W/m² | - |
| 1777817197 | 11.67° C | 38% | 1019 hPa | 0 mm | - | 664 W/m² | - |
| 1777816896 | 12.22° C | 36% | 1018.8 hPa | 0 mm | - | 644 W/m² | - |
| 1777816592 | 12.22° C | 36% | 1019 hPa | 0 mm | - | 627 W/m² | - |
| 1777816289 | 12.22° C | 39% | 1018.9 hPa | 0 mm | - | 608 W/m² | - |
| 1777815986 | 11.67° C | 40% | 1018.9 hPa | 0 mm | - | 590 W/m² | - |
| 1777815684 | 11.67° C | 38% | 1019 hPa | 0 mm | - | 570 W/m² | - |
| 1777815381 | 11.67° C | 38% | 1018.7 hPa | 0 mm | - | 550 W/m² | - |
| 1777815078 | 12.22° C | 38% | 1018.9 hPa | 0 mm | - | 531 W/m² | - |
| 1777814774 | 11.11° C | 45% | 1018.8 hPa | 0 mm | - | 511 W/m² | - |
| 1777814471 | 11.11° C | 41% | 1018.6 hPa | 0 mm | - | 490 W/m² | - |
| 1777814168 | 11.11° C | 42% | 1018.9 hPa | 0 mm | - | 476 W/m² | - |
| 1777813865 | 11.67° C | 43% | 1018.7 hPa | 0 mm | - | 456 W/m² | - |
* Rain latest hour (hover to see other rain measurements)
** Current wind speed in m/s (hover to see current wind gust speed)